createdAt,value
2023-04-17T00:02:10.771Z,69.07
2023-04-17T00:04:38.199Z,69.07
2023-04-17T00:07:04.878Z,69.04
2023-04-17T00:09:31.566Z,68.93
2023-04-17T00:11:58.217Z,69.17
2023-04-17T00:14:25.182Z,69.22
2023-04-17T00:16:51.920Z,69.24
2023-04-17T00:19:18.646Z,69.15
2023-04-17T00:21:45.205Z,69.18
2023-04-17T00:24:11.858Z,69.32
2023-04-17T00:26:39.184Z,69.60
2023-04-17T00:29:05.812Z,69.80
2023-04-17T00:31:32.493Z,70.09
2023-04-17T00:33:59.160Z,70.15
2023-04-17T00:36:26.005Z,70.55
2023-04-17T00:38:52.606Z,70.72
2023-04-17T00:41:19.152Z,70.97
2023-04-17T00:43:45.793Z,70.94
2023-04-17T00:46:12.739Z,70.76
2023-04-17T00:48:39.602Z,70.56
2023-04-17T00:51:06.437Z,70.31
2023-04-17T00:53:33.745Z,70.15
2023-04-17T00:56:01.408Z,70.06
2023-04-17T00:58:28.282Z,69.77
2023-04-17T01:00:54.954Z,69.70
2023-04-17T01:03:22.117Z,69.78
2023-04-17T01:05:51.405Z,69.39
2023-04-17T01:08:19.176Z,69.39
2023-04-17T01:10:46.408Z,69.43
2023-04-17T01:13:13.036Z,69.74
2023-04-17T01:15:41.845Z,70.23
2023-04-17T01:18:09.181Z,70.58
2023-04-17T01:20:36.221Z,71.34
2023-04-17T01:23:03.111Z,71.90
2023-04-17T01:25:30.017Z,72.42
2023-04-17T01:27:56.820Z,72.75
2023-04-17T01:30:24.153Z,73.14
2023-04-17T01:33:01.633Z,73.45
2023-04-17T01:35:28.650Z,73.50
2023-04-17T01:37:55.764Z,73.52
2023-04-17T01:40:22.534Z,73.41
2023-04-17T01:42:49.228Z,73.25
2023-04-17T01:45:16.277Z,73.03
2023-04-17T01:47:42.976Z,72.92
2023-04-17T01:50:10.224Z,72.62
2023-04-17T01:52:36.879Z,72.29
2023-04-17T01:55:04.176Z,72.08
2023-04-17T01:57:31.499Z,71.84
2023-04-17T01:59:58.338Z,71.59
2023-04-17T02:02:25.140Z,71.51
2023-04-17T02:04:51.887Z,71.54
2023-04-17T02:07:18.726Z,71.35
2023-04-17T02:09:45.275Z,71.27
2023-04-17T02:12:11.859Z,71.17
2023-04-17T02:14:38.875Z,70.94
2023-04-17T02:17:05.830Z,70.75
2023-04-17T02:19:32.765Z,70.95
2023-04-17T02:22:02.663Z,71.13
2023-04-17T02:24:30.535Z,71.41
2023-04-17T02:27:00.164Z,71.71
2023-04-17T02:29:26.838Z,71.52
2023-04-17T02:31:53.819Z,71.45
2023-04-17T02:34:20.406Z,71.14
2023-04-17T02:36:48.818Z,71.07
2023-04-17T02:39:15.777Z,70.98
2023-04-17T02:41:42.996Z,70.99
2023-04-17T02:44:10.416Z,70.86
2023-04-17T02:46:37.807Z,70.98
2023-04-17T02:49:04.451Z,71.08
2023-04-17T02:51:31.121Z,70.92
2023-04-17T02:53:57.709Z,70.93
2023-04-17T02:56:24.423Z,71.15
2023-04-17T02:58:50.993Z,71.02
2023-04-17T03:01:17.722Z,71.11
2023-04-17T03:03:45.873Z,69.52
2023-04-17T03:06:14.465Z,71.76
2023-04-17T03:08:41.872Z,72.02
2023-04-17T03:11:08.654Z,72.63
2023-04-17T03:13:35.694Z,73.11
2023-04-17T03:16:02.594Z,73.65
2023-04-17T03:18:29.332Z,73.98
2023-04-17T03:20:56.231Z,73.94
2023-04-17T03:23:22.864Z,74.39
2023-04-17T03:25:50.545Z,74.25
2023-04-17T03:28:17.544Z,74.01
2023-04-17T03:30:44.477Z,73.67
2023-04-17T03:33:11.135Z,74.10
2023-04-17T03:35:37.692Z,74.21
2023-04-17T03:38:07.269Z,74.39
2023-04-17T03:40:34.565Z,74.32
2023-04-17T03:43:01.563Z,74.25
2023-04-17T03:45:29.243Z,71.99
2023-04-17T03:47:56.040Z,74.29
2023-04-17T03:50:22.699Z,74.10
2023-04-17T03:52:55.048Z,74.23
2023-04-17T03:55:25.078Z,74.60
2023-04-17T03:57:52.637Z,74.59
2023-04-17T04:00:20.485Z,74.97
2023-04-17T04:02:51.038Z,74.86
2023-04-17T04:05:23.482Z,74.54
2023-04-17T04:07:50.133Z,74.58
2023-04-17T04:10:24.100Z,74.34
2023-04-17T04:12:50.689Z,74.23
2023-04-17T04:15:17.819Z,74.37
2023-04-17T04:17:47.257Z,74.57
2023-04-17T04:20:13.871Z,74.51
2023-04-17T04:22:40.835Z,74.48
2023-04-17T04:25:08.148Z,74.37
2023-04-17T04:27:46.888Z,74.31
2023-04-17T04:30:14.064Z,74.06
2023-04-17T04:32:43.942Z,73.77
2023-04-17T04:35:10.573Z,73.72
2023-04-17T04:37:37.216Z,73.66
2023-04-17T04:40:08.226Z,73.90
2023-04-17T04:42:35.052Z,74.25
2023-04-17T04:45:11.736Z,74.51
2023-04-17T04:47:38.562Z,74.42
2023-04-17T04:50:05.599Z,74.68
2023-04-17T04:52:32.615Z,74.75
2023-04-17T04:55:04.531Z,74.75
2023-04-17T04:57:33.301Z,74.87
2023-04-17T05:00:02.035Z,75.15
2023-04-17T05:02:37.085Z,75.19
2023-04-17T05:05:05.861Z,75.43
2023-04-17T05:07:33.951Z,75.21
2023-04-17T05:10:01.052Z,75.08
2023-04-17T05:12:31.953Z,75.23
2023-04-17T05:14:58.549Z,75.34
2023-04-17T05:17:25.234Z,75.46
2023-04-17T05:19:52.874Z,75.34
2023-04-17T05:22:20.777Z,75.11
2023-04-17T05:25:05.054Z,74.94
2023-04-17T05:27:31.697Z,74.70
2023-04-17T05:29:59.016Z,74.74
2023-04-17T05:32:25.929Z,74.62
2023-04-17T05:34:57.946Z,74.87
2023-04-17T05:37:27.176Z,74.95
2023-04-17T05:39:55.284Z,74.56
2023-04-17T05:42:22.059Z,74.72
2023-04-17T05:44:49.039Z,74.81
2023-04-17T05:47:15.608Z,74.62
2023-04-17T05:49:42.256Z,74.51
2023-04-17T05:52:09.683Z,74.48
2023-04-17T05:54:40.428Z,74.72
2023-04-17T05:57:08.483Z,74.75
2023-04-17T05:59:35.810Z,74.63
2023-04-17T06:02:02.601Z,74.23
2023-04-17T06:04:29.470Z,74.01
2023-04-17T06:06:56.244Z,74.16
2023-04-17T06:09:25.214Z,73.98
2023-04-17T06:11:52.430Z,74.29
2023-04-17T06:14:19.114Z,74.17
2023-04-17T06:16:46.726Z,74.24
2023-04-17T06:19:16.313Z,74.58
2023-04-17T06:21:44.877Z,74.62
2023-04-17T06:24:11.588Z,74.50
2023-04-17T06:26:43.721Z,74.56
2023-04-17T06:29:10.673Z,74.48
2023-04-17T06:31:37.940Z,74.26
2023-04-17T06:34:04.950Z,74.38
2023-04-17T06:36:37.727Z,73.85
2023-04-17T06:39:04.697Z,74.22
2023-04-17T06:41:32.418Z,74.30
2023-04-17T06:44:00.588Z,69.53
2023-04-17T06:46:42.885Z,74.25
2023-04-17T06:49:09.774Z,74.14
2023-04-17T06:51:36.671Z,74.45
2023-04-17T06:54:03.299Z,74.83
2023-04-17T06:56:29.863Z,75.00
2023-04-17T06:58:56.476Z,74.90
2023-04-17T07:01:23.064Z,75.30
2023-04-17T07:03:49.877Z,75.52
2023-04-17T07:06:16.664Z,75.31
2023-04-17T07:08:43.292Z,75.38
2023-04-17T07:11:09.911Z,75.22
2023-04-17T07:13:36.515Z,74.79
2023-04-17T07:16:03.788Z,74.34
2023-04-17T07:18:30.600Z,74.27
2023-04-17T07:20:57.276Z,74.20
2023-04-17T07:23:26.400Z,74.56
2023-04-17T07:25:53.308Z,74.08
2023-04-17T07:28:19.957Z,73.84
2023-04-17T07:30:46.552Z,73.61
2023-04-17T07:33:13.310Z,73.96
2023-04-17T07:35:40.199Z,73.68
2023-04-17T07:38:06.793Z,73.88
2023-04-17T07:40:36.506Z,73.03
2023-04-17T07:43:03.117Z,74.26
2023-04-17T07:45:29.797Z,74.22
2023-04-17T07:47:56.555Z,73.92
2023-04-17T07:50:23.266Z,74.28
2023-04-17T07:52:49.854Z,74.45
2023-04-17T07:55:16.454Z,74.58
2023-04-17T07:57:43.109Z,74.00
2023-04-17T08:00:11.035Z,74.19
2023-04-17T08:02:41.377Z,74.50
2023-04-17T08:05:08.689Z,74.87
2023-04-17T08:07:36.220Z,74.75
2023-04-17T08:10:04.147Z,74.91
2023-04-17T08:12:30.697Z,74.91
2023-04-17T08:14:57.271Z,74.81
2023-04-17T08:17:23.950Z,74.69
2023-04-17T08:19:50.564Z,75.10
2023-04-17T08:22:17.391Z,75.26
2023-04-17T08:24:44.060Z,75.09
2023-04-17T08:27:10.601Z,75.07
2023-04-17T08:29:37.205Z,74.99
2023-04-17T08:32:13.966Z,74.82
2023-04-17T08:34:44.299Z,75.40
2023-04-17T08:37:10.863Z,75.32
2023-04-17T08:39:37.692Z,75.08
2023-04-17T08:42:10.026Z,73.09
2023-04-17T08:44:38.663Z,74.79
2023-04-17T08:47:06.426Z,74.61
2023-04-17T08:49:34.937Z,74.16
2023-04-17T08:52:05.460Z,73.08
2023-04-17T08:54:32.663Z,74.46
2023-04-17T08:57:02.650Z,73.80
2023-04-17T08:59:29.297Z,75.25
2023-04-17T09:02:07.922Z,71.66
2023-04-17T09:04:37.418Z,74.24
2023-04-17T09:07:08.564Z,74.60
2023-04-17T09:09:54.275Z,71.04
2023-04-17T09:12:25.762Z,74.64
2023-04-17T09:14:53.015Z,74.66
2023-04-17T09:17:21.365Z,74.57
2023-04-17T09:20:07.994Z,71.92
2023-04-17T09:22:36.496Z,74.88
2023-04-17T09:25:03.724Z,74.73
2023-04-17T09:27:30.691Z,74.81
2023-04-17T09:30:02.922Z,74.49
2023-04-17T09:32:34.204Z,73.10
2023-04-17T09:35:03.083Z,74.72
2023-04-17T09:37:55.622Z,68.93
2023-04-17T09:40:23.677Z,74.99
2023-04-17T09:42:54.124Z,68.42
2023-04-17T09:45:21.607Z,74.18
2023-04-17T09:47:48.591Z,73.38
2023-04-17T09:50:16.592Z,73.49
2023-04-17T09:52:43.506Z,68.36
2023-04-17T09:55:11.851Z,73.34
2023-04-17T09:57:38.713Z,74.07
2023-04-17T10:00:06.300Z,73.80
2023-04-17T10:02:33.486Z,74.13
2023-04-17T10:05:00.613Z,74.17
2023-04-17T10:07:27.254Z,73.83
2023-04-17T10:09:53.908Z,73.59
2023-04-17T10:12:21.225Z,73.38
2023-04-17T10:14:51.421Z,71.51
2023-04-17T10:17:29.359Z,71.92
2023-04-17T10:19:55.963Z,72.61
2023-04-17T10:22:22.672Z,74.40
2023-04-17T10:25:12.843Z,72.13
2023-04-17T10:27:39.589Z,75.23
2023-04-17T10:30:08.368Z,74.39
2023-04-17T10:32:35.086Z,74.15
2023-04-17T10:35:22.453Z,74.13
2023-04-17T10:37:49.041Z,74.13
2023-04-17T10:40:19.868Z,70.95
2023-04-17T10:43:05.161Z,68.68
2023-04-17T10:45:58.153Z,65.96
2023-04-17T10:48:30.241Z,69.92
2023-04-17T10:50:57.209Z,72.99
2023-04-17T10:53:41.840Z,69.86
2023-04-17T10:56:10.386Z,71.83
2023-04-17T10:58:56.625Z,67.74
2023-04-17T11:01:29.012Z,70.25
2023-04-17T11:03:56.690Z,71.67
2023-04-17T11:06:27.352Z,70.06
2023-04-17T11:08:57.181Z,71.63
2023-04-17T11:11:35.267Z,71.59
2023-04-17T11:14:18.297Z,71.48
2023-04-17T11:16:47.534Z,71.52
2023-04-17T11:19:22.063Z,65.83
2023-04-17T11:21:56.256Z,64.15
2023-04-17T11:24:32.454Z,66.64
2023-04-17T11:27:00.450Z,71.24
2023-04-17T11:29:27.806Z,70.86
2023-04-17T11:31:56.625Z,70.76
2023-04-17T11:34:25.943Z,69.64
2023-04-17T11:36:54.548Z,70.24
2023-04-17T11:39:22.782Z,70.31
2023-04-17T11:41:51.556Z,69.15
2023-04-17T11:44:19.203Z,70.71
2023-04-17T11:46:50.386Z,67.50
2023-04-17T11:49:23.396Z,71.04
2023-04-17T11:51:50.035Z,71.42
2023-04-17T11:54:31.156Z,66.41
2023-04-17T11:57:02.814Z,68.36
2023-04-17T11:59:37.397Z,70.06
2023-04-17T12:02:06.259Z,68.85
2023-04-17T12:04:34.570Z,66.01
2023-04-17T12:07:02.910Z,67.34
2023-04-17T12:09:29.527Z,68.87
2023-04-17T12:11:56.188Z,69.60
2023-04-17T12:14:24.076Z,70.28
2023-04-17T12:16:51.773Z,70.20
2023-04-17T12:19:18.744Z,68.72
2023-04-17T12:21:46.107Z,69.85
2023-04-17T12:24:12.999Z,70.49
2023-04-17T12:26:47.102Z,59.83
2023-04-17T12:29:14.485Z,70.26
2023-04-17T12:31:41.203Z,71.27
2023-04-17T12:34:08.014Z,70.27
2023-04-17T12:36:34.777Z,69.82
2023-04-17T12:39:01.609Z,69.83
2023-04-17T12:41:28.191Z,69.80
2023-04-17T12:43:54.848Z,67.27
2023-04-17T12:46:21.852Z,68.04
2023-04-17T12:48:48.449Z,67.92
2023-04-17T12:51:15.219Z,67.48
2023-04-17T12:53:41.781Z,66.83
2023-04-17T12:56:08.409Z,66.32
2023-04-17T12:58:35.047Z,66.63
2023-04-17T13:01:01.661Z,66.64
2023-04-17T13:03:28.479Z,66.79
2023-04-17T13:05:55.213Z,66.78
2023-04-17T13:08:21.769Z,67.29
2023-04-17T13:10:48.371Z,67.52
2023-04-17T13:13:15.004Z,67.08
2023-04-17T13:15:42.018Z,66.98
2023-04-17T13:18:08.764Z,68.16
2023-04-17T13:20:35.372Z,67.19
2023-04-17T13:23:01.963Z,66.31
2023-04-17T13:25:30.289Z,65.17
2023-04-17T13:27:56.897Z,66.84
2023-04-17T13:30:23.528Z,67.08
2023-04-17T13:32:50.237Z,66.96
2023-04-17T13:35:16.935Z,67.02
2023-04-17T13:37:43.534Z,60.62
2023-04-17T13:40:10.438Z,62.12
2023-04-17T13:42:37.196Z,61.08
2023-04-17T13:45:04.813Z,61.67
2023-04-17T13:47:31.510Z,61.30
2023-04-17T13:49:58.199Z,59.66
2023-04-17T13:52:24.940Z,60.25
2023-04-17T13:54:51.480Z,61.46
2023-04-17T13:57:18.160Z,61.37
2023-04-17T13:59:45.074Z,62.18
2023-04-17T14:02:11.810Z,61.79
2023-04-17T14:04:38.698Z,61.41
2023-04-17T14:07:05.990Z,61.89
2023-04-17T14:09:32.715Z,62.75
2023-04-17T14:11:59.357Z,60.58
2023-04-17T14:14:25.936Z,59.13
2023-04-17T14:16:53.585Z,56.83
2023-04-17T14:19:20.404Z,59.49
2023-04-17T14:21:47.212Z,59.38
2023-04-17T14:24:13.966Z,59.90
2023-04-17T14:26:40.676Z,54.92
2023-04-17T14:29:07.275Z,55.86
2023-04-17T14:31:33.925Z,56.54
2023-04-17T14:34:00.513Z,56.28
2023-04-17T14:36:27.260Z,54.09
2023-04-17T14:38:53.849Z,56.31
2023-04-17T14:41:20.588Z,56.87
2023-04-17T14:43:47.360Z,56.71
2023-04-17T14:46:17.103Z,54.05
2023-04-17T14:48:55.056Z,55.80
2023-04-17T14:51:25.472Z,53.93
2023-04-17T14:53:53.091Z,54.12
2023-04-17T14:56:20.332Z,55.26
2023-04-17T14:58:46.999Z,54.10
2023-04-17T15:01:13.619Z,53.76
2023-04-17T15:03:40.592Z,53.16
2023-04-17T15:06:08.579Z,52.88
2023-04-17T15:08:35.164Z,53.01
2023-04-17T15:11:01.837Z,50.14
2023-04-17T15:13:28.457Z,49.32
2023-04-17T15:15:55.085Z,52.30
2023-04-17T15:18:21.758Z,53.04
2023-04-17T15:20:48.440Z,49.61
2023-04-17T15:23:15.068Z,50.75
2023-04-17T15:25:41.751Z,51.93
2023-04-17T15:28:08.563Z,49.45
2023-04-17T15:30:35.258Z,50.06
2023-04-17T15:33:02.003Z,47.90
2023-04-17T15:35:28.638Z,46.84
2023-04-17T15:37:55.241Z,49.59
2023-04-17T15:40:21.884Z,49.68
2023-04-17T15:42:48.552Z,47.54
2023-04-17T15:45:15.115Z,49.21
2023-04-17T15:47:41.736Z,49.13
2023-04-17T15:50:08.888Z,49.81
2023-04-17T15:52:35.439Z,49.25
2023-04-17T15:55:02.148Z,50.79
2023-04-17T15:57:28.927Z,51.51
2023-04-17T15:59:55.487Z,50.91
2023-04-17T16:02:22.738Z,51.30
2023-04-17T16:04:49.503Z,52.54
2023-04-17T16:07:16.076Z,49.78
2023-04-17T16:09:42.625Z,51.58
2023-04-17T16:12:10.267Z,52.58
2023-04-17T16:14:37.919Z,53.28
2023-04-17T16:17:05.005Z,53.37
2023-04-17T16:19:32.398Z,54.35
2023-04-17T16:21:59.401Z,55.17
2023-04-17T16:24:26.407Z,55.44
2023-04-17T16:27:01.800Z,50.37
2023-04-17T16:29:28.417Z,55.23
2023-04-17T16:31:55.627Z,55.99
2023-04-17T16:34:22.641Z,56.76
2023-04-17T16:36:49.515Z,56.92
2023-04-17T16:39:16.275Z,57.01
2023-04-17T16:41:43.354Z,56.68
2023-04-17T16:44:13.286Z,53.32
2023-04-17T16:47:02.911Z,51.98
2023-04-17T16:49:27.542Z,49.63
2023-04-17T16:51:54.091Z,50.80
2023-04-17T16:54:20.732Z,50.76
2023-04-17T16:56:48.612Z,50.31
2023-04-17T16:59:15.548Z,49.70
2023-04-17T17:01:42.456Z,50.67
2023-04-17T17:04:09.165Z,49.12
2023-04-17T17:06:35.849Z,49.13
2023-04-17T17:09:02.733Z,49.94
2023-04-17T17:11:29.584Z,51.26
2023-04-17T17:13:56.162Z,52.08
2023-04-17T17:16:22.892Z,50.86
2023-04-17T17:18:49.526Z,50.21
2023-04-17T17:21:17.204Z,50.87
2023-04-17T17:23:43.797Z,50.77
2023-04-17T17:26:10.354Z,51.87
2023-04-17T17:28:37.411Z,52.93
2023-04-17T17:31:07.708Z,53.06
2023-04-17T17:33:35.491Z,54.34
2023-04-17T17:36:02.352Z,55.60
2023-04-17T17:38:35.063Z,55.56
2023-04-17T17:41:01.731Z,56.03
2023-04-17T17:43:28.426Z,56.18
2023-04-17T17:45:55.076Z,56.41
2023-04-17T17:48:21.730Z,57.17
2023-04-17T17:50:48.311Z,57.46
2023-04-17T17:53:14.869Z,57.34
2023-04-17T17:55:41.520Z,57.81
2023-04-17T17:58:08.974Z,57.70
2023-04-17T18:00:35.700Z,58.19
2023-04-17T18:03:02.900Z,58.97
2023-04-17T18:05:29.634Z,59.31
2023-04-17T18:07:56.255Z,59.68
2023-04-17T18:10:22.975Z,59.89
2023-04-17T18:12:49.553Z,59.65
2023-04-17T18:15:16.266Z,59.84
2023-04-17T18:17:42.840Z,60.45
2023-04-17T18:20:09.898Z,61.27
2023-04-17T18:22:36.492Z,61.64
2023-04-17T18:25:03.099Z,62.20
2023-04-17T18:27:29.746Z,62.61
2023-04-17T18:29:56.445Z,62.90
2023-04-17T18:32:23.126Z,63.06
2023-04-17T18:34:49.696Z,63.39
2023-04-17T18:37:18.139Z,63.52
2023-04-17T18:39:45.182Z,63.79
2023-04-17T18:42:11.746Z,63.81
2023-04-17T18:44:38.431Z,63.83
2023-04-17T18:47:05.184Z,64.06
2023-04-17T18:49:31.800Z,64.07
2023-04-17T18:51:58.507Z,64.37
2023-04-17T18:54:25.190Z,64.41
2023-04-17T18:56:51.831Z,64.54
2023-04-17T18:59:18.433Z,64.50
2023-04-17T19:01:45.016Z,64.40
2023-04-17T19:04:11.753Z,64.28
2023-04-17T19:06:38.565Z,64.31
2023-04-17T19:09:05.262Z,64.19
2023-04-17T19:11:32.054Z,64.33
2023-04-17T19:13:58.645Z,63.85
2023-04-17T19:16:25.395Z,63.35
2023-04-17T19:18:51.985Z,63.46
2023-04-17T19:21:18.640Z,63.10
2023-04-17T19:23:45.269Z,62.60
2023-04-17T19:26:11.946Z,62.56
2023-04-17T19:28:38.594Z,62.91
2023-04-17T19:31:05.222Z,63.51
2023-04-17T19:33:32.522Z,64.08
2023-04-17T19:35:59.637Z,64.52
2023-04-17T19:38:26.291Z,64.84
2023-04-17T19:41:11.801Z,63.65
2023-04-17T19:43:38.442Z,65.53
2023-04-17T19:46:05.050Z,65.79
2023-04-17T19:48:31.777Z,65.94
2023-04-17T19:50:58.369Z,66.11
2023-04-17T19:53:24.929Z,66.33
2023-04-17T19:55:51.492Z,66.37
2023-04-17T19:58:18.352Z,66.45
2023-04-17T20:00:44.917Z,66.55
2023-04-17T20:03:11.710Z,66.70
2023-04-17T20:05:38.373Z,66.62
2023-04-17T20:08:05.217Z,66.78
2023-04-17T20:10:31.875Z,66.87
2023-04-17T20:12:58.472Z,66.92
2023-04-17T20:15:25.081Z,66.86
2023-04-17T20:17:51.721Z,66.81
2023-04-17T20:20:18.315Z,66.75
2023-04-17T20:22:44.938Z,66.67
2023-04-17T20:25:11.519Z,66.82
2023-04-17T20:27:38.097Z,66.91
2023-04-17T20:30:05.186Z,66.77
2023-04-17T20:32:31.866Z,66.87
2023-04-17T20:34:58.559Z,66.76
2023-04-17T20:37:25.348Z,66.80
2023-04-17T20:39:51.949Z,66.74
2023-04-17T20:42:18.532Z,66.53
2023-04-17T20:44:45.152Z,66.63
2023-04-17T20:47:11.821Z,66.63
2023-04-17T20:49:38.379Z,66.60
2023-04-17T20:52:04.975Z,66.53
2023-04-17T20:54:31.584Z,66.57
2023-04-17T20:56:58.244Z,66.50
2023-04-17T20:59:24.908Z,66.69
2023-04-17T21:01:51.538Z,66.97
2023-04-17T21:04:18.262Z,67.18
2023-04-17T21:06:45.026Z,67.44
2023-04-17T21:09:11.572Z,67.59
2023-04-17T21:11:38.244Z,67.73
2023-04-17T21:14:04.851Z,67.92
2023-04-17T21:16:31.671Z,68.27
2023-04-17T21:18:58.300Z,68.12
2023-04-17T21:21:24.910Z,68.16
2023-04-17T21:23:51.812Z,68.28
2023-04-17T21:26:18.382Z,68.33
2023-04-17T21:28:44.958Z,68.29
2023-04-17T21:31:14.501Z,67.70
2023-04-17T21:33:41.136Z,67.97
2023-04-17T21:36:07.757Z,68.22
2023-04-17T21:38:34.318Z,68.07
2023-04-17T21:41:01.087Z,68.11
2023-04-17T21:43:27.642Z,68.08
2023-04-17T21:45:54.258Z,68.11
2023-04-17T21:48:20.891Z,68.16
2023-04-17T21:50:47.459Z,68.02
2023-04-17T21:53:14.141Z,67.76
2023-04-17T21:55:40.728Z,68.02
2023-04-17T21:58:07.355Z,67.98
2023-04-17T22:00:33.918Z,67.94
2023-04-17T22:03:00.705Z,68.05
2023-04-17T22:05:27.547Z,68.10
2023-04-17T22:07:55.312Z,68.25
2023-04-17T22:10:22.912Z,66.92
2023-04-17T22:12:49.471Z,68.41
2023-04-17T22:15:16.227Z,68.35
2023-04-17T22:17:42.849Z,68.34
2023-04-17T22:20:09.867Z,68.08
2023-04-17T22:22:36.550Z,68.16
2023-04-17T22:25:03.268Z,68.05
2023-04-17T22:27:29.850Z,67.96
2023-04-17T22:29:56.516Z,68.18
2023-04-17T22:32:23.118Z,68.33
2023-04-17T22:34:50.084Z,68.52
2023-04-17T22:37:16.644Z,68.52
2023-04-17T22:39:43.358Z,68.54
2023-04-17T22:42:09.940Z,68.58
2023-04-17T22:44:36.679Z,68.48
2023-04-17T22:47:03.373Z,68.63
2023-04-17T22:49:30.021Z,68.71
2023-04-17T22:51:56.749Z,68.79
2023-04-17T22:54:23.555Z,68.72
2023-04-17T22:56:50.169Z,68.62
2023-04-17T22:59:16.786Z,68.72
2023-04-17T23:01:43.386Z,68.72
2023-04-17T23:04:10.003Z,68.78
2023-04-17T23:06:36.685Z,68.84
2023-04-17T23:09:03.273Z,68.88
2023-04-17T23:11:31.754Z,68.94
2023-04-17T23:13:58.423Z,69.35
2023-04-17T23:16:25.120Z,69.43
2023-04-17T23:18:51.909Z,69.51
2023-04-17T23:21:18.538Z,69.49
2023-04-17T23:23:45.162Z,68.73
2023-04-17T23:26:15.081Z,68.74
2023-04-17T23:28:41.684Z,68.91
2023-04-17T23:31:08.437Z,68.94
2023-04-17T23:33:35.079Z,69.01
2023-04-17T23:36:01.887Z,69.12
2023-04-17T23:38:28.543Z,69.31
2023-04-17T23:40:55.270Z,69.43
2023-04-17T23:43:21.842Z,69.43
2023-04-17T23:45:48.551Z,69.51
2023-04-17T23:48:15.089Z,69.60
2023-04-17T23:50:41.841Z,69.56
2023-04-17T23:53:08.478Z,69.54
2023-04-17T23:55:35.126Z,69.47
2023-04-17T23:58:01.852Z,69.57
